Time;durP1;ratioP1;P1;durP2;ratioP2;P2;SDS_P1;SDS_P2;PMS_P1;PMS_P2;Temp;Humidity;BMP_temperature;BMP_pressure;BME280_temperature;BME280_humidity;BME280_pressure;Samples;Min_cycle;Max_cycle;Signal;HPM_P1;HPM_P2
2022/12/19 00:01:15;;;;;;;7.22;2.55;;;;;;;8.76;89.81;99016.22;5053278;28;20071;-60
2022/12/19 00:03:45;;;;;;;5.03;2.30;;;;;;;8.79;90.12;99001.56;5052867;28;20058;-56
2022/12/19 00:06:13;;;;;;;6.43;2.20;;;;;;;8.80;90.52;98997.25;5051380;28;20103;-59
2022/12/19 00:08:41;;;;;;;6.38;3.08;;;;;;;8.84;89.99;98973.09;5051505;28;20068;-61
2022/12/19 00:11:09;;;;;;;5.78;2.55;;;;;;;8.85;89.87;98974.81;5054688;28;20077;-62
2022/12/19 00:13:36;;;;;;;4.30;2.17;;;;;;;8.85;90.84;98978.25;5053908;28;20057;-60
2022/12/19 00:16:12;;;;;;;7.70;2.72;;;;;;;8.90;90.38;98975.59;5059917;28;20131;-58
2022/12/19 00:18:41;;;;;;;6.75;2.63;;;;;;;8.92;89.98;98971.25;5054639;28;20064;-60
2022/12/19 00:21:10;;;;;;;8.00;2.60;;;;;;;8.97;90.35;98961.75;5058011;28;20095;-57
2022/12/19 00:23:37;;;;;;;4.22;2.20;;;;;;;8.99;90.07;98959.16;5054883;28;20044;-57
2022/12/19 00:28:45;;;;;;;4.13;2.10;;;;;;;8.99;90.56;98951.41;5042580;27;20813;-58
2022/12/19 00:31:13;;;;;;;6.50;2.00;;;;;;;9.07;90.24;98956.44;5002777;28;20144;-58
2022/12/19 00:33:40;;;;;;;4.25;1.80;;;;;;;9.10;90.16;98958.97;4997656;28;20754;-58
2022/12/19 00:36:13;;;;;;;5.00;1.50;;;;;;;9.12;90.15;98957.25;5003137;28;20139;-58
2022/12/19 00:38:44;;;;;;;2.85;1.40;;;;;;;9.15;89.69;98962.34;4996556;28;20057;-60
2022/12/19 00:41:15;;;;;;;3.53;1.33;;;;;;;9.16;89.83;98956.31;4996788;28;20146;-58
2022/12/19 00:43:42;;;;;;;3.38;2.47;;;;;;;9.23;89.76;98959.66;4999875;28;20082;-59
2022/12/19 00:46:12;;;;;;;3.72;1.80;;;;;;;9.25;89.54;98960.47;4999021;28;20061;-57
2022/12/19 00:48:40;;;;;;;3.40;1.60;;;;;;;9.23;90.19;98960.50;4998415;28;20068;-56
2022/12/19 00:51:18;;;;;;;5.00;1.52;;;;;;;9.24;89.61;98949.31;4999238;28;20058;-57
2022/12/19 00:53:46;;;;;;;5.45;1.50;;;;;;;9.31;90.57;98956.94;5000470;28;20187;-60
2022/12/19 00:56:17;;;;;;;3.70;1.90;;;;;;;9.33;89.92;98944.88;4998135;28;20049;-57
2022/12/19 00:58:43;;;;;;;4.20;1.55;;;;;;;9.37;89.93;98947.41;5002592;28;20563;-60
2022/12/19 01:01:16;;;;;;;2.72;1.02;;;;;;;9.40;89.95;98941.31;4998071;28;20084;-58
2022/12/19 01:03:43;;;;;;;3.03;1.17;;;;;;;9.40;89.93;98936.16;4993174;28;20053;-58
2022/12/19 01:06:30;;;;;;;3.88;1.83;;;;;;;9.41;89.56;98931.81;4998863;28;20057;-61
2022/12/19 01:08:57;;;;;;;3.75;1.77;;;;;;;9.43;89.87;98928.34;4997010;28;20053;-57
2022/12/19 01:14:11;;;;;;;3.15;1.20;;;;;;;9.49;89.47;98925.66;4999462;28;20505;-60
2022/12/19 01:16:46;;;;;;;2.88;0.80;;;;;;;9.50;90.13;98922.19;4999053;28;20054;-57
2022/12/19 01:19:13;;;;;;;4.13;1.15;;;;;;;9.55;89.39;98903.19;4999783;28;20112;-59
2022/12/19 01:21:39;;;;;;;2.28;0.95;;;;;;;9.53;89.68;98890.28;4999914;28;20050;-59
2022/12/19 01:24:06;;;;;;;1.98;1.02;;;;;;;9.52;89.58;98897.19;4994746;28;20048;-57
2022/12/19 01:26:33;;;;;;;2.90;1.38;;;;;;;9.59;89.91;98884.16;5000789;28;20092;-55
2022/12/19 01:29:00;;;;;;;1.65;0.68;;;;;;;9.55;90.21;98898.84;4995736;28;20124;-59
2022/12/19 01:31:26;;;;;;;3.15;0.77;;;;;;;9.61;90.20;98895.31;4998421;28;20077;-62
2022/12/19 01:33:53;;;;;;;2.17;0.80;;;;;;;9.64;89.95;98892.66;4998249;28;20097;-58
2022/12/19 01:36:20;;;;;;;2.65;1.08;;;;;;;9.65;89.51;98884.03;4997649;28;20050;-61
2022/12/19 01:38:46;;;;;;;2.33;0.70;;;;;;;9.68;89.71;98889.16;4995381;28;20104;-57
2022/12/19 01:41:13;;;;;;;2.05;0.90;;;;;;;9.71;89.65;98889.09;4985492;28;20050;-57
2022/12/19 01:44:01;;;;;;;2.42;1.75;;;;;;;9.73;90.05;98887.31;4986941;28;20128;-59
2022/12/19 01:46:47;;;;;;;1.92;0.43;;;;;;;9.76;90.07;98895.03;4976640;28;20394;-59
2022/12/19 01:49:21;;;;;;;3.35;0.80;;;;;;;9.80;89.70;98907.91;4993232;28;20070;-59
2022/12/19 01:51:52;;;;;;;2.10;1.02;;;;;;;9.81;89.54;98899.28;4988135;28;20534;-58
2022/12/19 01:54:24;;;;;;;1.23;0.52;;;;;;;9.87;89.68;98901.75;4983163;28;20050;-60
2022/12/19 01:56:54;;;;;;;2.22;0.75;;;;;;;9.90;90.01;98909.47;4984404;28;20096;-58
2022/12/19 01:59:33;;;;;;;1.23;0.73;;;;;;;9.91;89.39;98906.00;4986820;28;20136;-61
2022/12/19 02:02:09;;;;;;;1.23;0.40;;;;;;;9.94;89.54;98905.94;4985776;28;20137;-59
2022/12/19 02:04:38;;;;;;;2.67;0.80;;;;;;;9.99;89.69;98888.59;4980108;28;20058;-62
2022/12/19 02:07:06;;;;;;;1.85;0.80;;;;;;;10.00;90.37;98904.97;4986344;28;20077;-58
2022/12/19 02:09:44;;;;;;;1.30;0.70;;;;;;;10.09;90.13;98903.91;4988658;28;20046;-59
2022/12/19 02:12:10;;;;;;;1.90;0.90;;;;;;;10.09;89.51;98904.78;4981678;28;20113;-57
2022/12/19 02:14:37;;;;;;;1.13;0.88;;;;;;;10.12;89.52;98893.53;4984089;28;20512;-59
2022/12/19 02:17:29;;;;;;;2.28;0.30;;;;;;;10.15;90.35;98906.41;4983371;28;20046;-60
2022/12/19 02:23:20;;;;;;;0.95;0.55;;;;;;;10.22;90.16;98910.56;5068348;28;20402;-58
2022/12/19 02:28:44;;;;;;;1.92;1.67;;;;;;;10.30;89.29;98918.19;5041511;28;20434;-60
2022/12/19 02:31:26;;;;;;;2.10;1.20;;;;;;;10.34;90.12;98912.06;4995265;28;20046;-61
2022/12/19 02:36:44;;;;;;;1.98;0.40;;;;;;;10.40;89.77;98918.84;5052665;28;20399;-59
2022/12/19 02:39:25;;;;;;;2.00;1.85;;;;;;;10.46;90.32;98916.16;5019107;28;20054;-58
2022/12/19 02:41:56;;;;;;;1.83;1.73;;;;;;;10.46;89.14;98908.41;5014585;28;20096;-58
2022/12/19 02:44:44;;;;;;;2.58;1.60;;;;;;;10.49;89.55;98913.53;5017126;28;20112;-59
2022/12/19 02:47:12;;;;;;;2.00;1.90;;;;;;;10.56;90.33;98903.03;5014623;28;20049;-60
2022/12/19 02:49:39;;;;;;;0.60;0.30;;;;;;;10.59;90.28;98900.38;5011256;28;20556;-57
2022/12/19 02:55:00;;;;;;;1.13;0.93;;;;;;;10.65;89.52;98901.13;5033596;28;20900;-62
2022/12/19 03:00:07;;;;;;;1.35;1.25;;;;;;;10.76;89.49;98894.84;5059496;27;21040;-60
2022/12/19 03:13:33;;;;;;;2.55;0.30;;;;;;;10.96;89.69;98890.94;5111939;27;20381;-60
2022/12/19 03:16:02;;;;;;;2.88;0.40;;;;;;;10.94;89.53;98888.38;5095839;28;20036;-61
2022/12/19 03:18:31;;;;;;;1.48;0.63;;;;;;;10.94;89.67;98885.78;5094200;28;20521;-57
2022/12/19 03:23:36;;;;;;;0.80;0.63;;;;;;;10.98;90.14;98890.00;5005499;28;20422;-60
2022/12/19 03:26:08;;;;;;;4.38;0.63;;;;;;;11.00;89.62;98897.75;4998828;28;20054;-60
2022/12/19 03:31:35;;;;;;;2.78;1.25;;;;;;;11.04;90.28;98889.03;5026988;28;20403;-58
2022/12/19 03:34:09;;;;;;;2.00;1.25;;;;;;;11.07;90.33;98888.13;4993334;28;20501;-58
2022/12/19 03:36:41;;;;;;;3.40;1.70;;;;;;;11.11;89.78;98892.34;4990415;28;20062;-59
2022/12/19 03:39:09;;;;;;;2.60;1.45;;;;;;;11.14;89.77;98911.25;4991025;28;20145;-61
2022/12/19 03:44:30;;;;;;;2.33;1.15;;;;;;;11.18;90.06;98906.88;4999544;28;20053;-59
2022/12/19 03:47:05;;;;;;;1.50;0.30;;;;;;;11.15;89.11;98902.56;4997423;28;20586;-62
2022/12/19 03:49:32;;;;;;;4.82;1.42;;;;;;;11.21;89.11;98911.13;4995868;28;20096;-58
2022/12/19 03:52:10;;;;;;;1.55;1.10;;;;;;;11.22;89.92;98918.84;4997114;28;20169;-61
2022/12/19 03:54:42;;;;;;;3.75;1.50;;;;;;;11.27;89.73;98911.81;4998173;28;20050;-57
2022/12/19 03:57:18;;;;;;;2.05;1.38;;;;;;;11.29;88.74;98904.00;4990756;28;20105;-61
2022/12/19 04:02:26;;;;;;;3.08;0.60;;;;;;;11.30;88.74;98888.41;5078112;27;20120;-58
2022/12/19 04:04:59;;;;;;;1.30;0.43;;;;;;;11.33;89.66;98905.63;5056096;28;20033;-62
2022/12/19 04:07:26;;;;;;;1.25;0.52;;;;;;;11.35;90.08;98903.84;5054114;28;20099;-62
2022/12/19 04:09:54;;;;;;;2.65;0.50;;;;;;;11.35;89.29;98903.00;5059774;28;20129;-59
2022/12/19 04:12:29;;;;;;;2.92;0.80;;;;;;;11.36;89.05;98904.69;5053142;28;20575;-58
2022/12/19 04:14:56;;;;;;;2.78;0.60;;;;;;;11.36;89.98;98909.88;5055910;28;20500;-58
2022/12/19 04:25:26;;;;;;;4.88;0.70;;;;;;;11.45;89.11;98904.47;5051556;28;20420;-60
2022/12/19 04:28:00;;;;;;;4.28;0.50;;;;;;;11.46;89.60;98911.38;5009886;28;20049;-56
2022/12/19 04:30:27;;;;;;;3.17;0.68;;;;;;;11.46;89.25;98919.16;5012373;28;20050;-58
2022/12/19 04:32:54;;;;;;;3.50;0.70;;;;;;;11.51;89.14;98898.28;5015744;28;20046;-56
2022/12/19 04:35:21;;;;;;;3.97;0.50;;;;;;;11.49;88.55;98895.75;5012984;28;20450;-56
2022/12/19 04:37:47;;;;;;;5.45;0.90;;;;;;;11.52;88.58;98900.00;5016176;28;20449;-60
2022/12/19 04:40:14;;;;;;;4.00;1.00;;;;;;;11.52;89.24;98913.78;5010575;28;20076;-59
2022/12/19 04:42:41;;;;;;;8.38;1.23;;;;;;;11.52;88.32;98900.00;5016286;28;20042;-58
2022/12/19 04:45:08;;;;;;;1.90;0.52;;;;;;;11.54;89.91;98896.47;5009089;28;20221;-58
2022/12/19 04:47:34;;;;;;;6.97;0.98;;;;;;;11.55;89.04;98900.75;5005581;28;20137;-61
2022/12/19 04:50:01;;;;;;;6.72;1.20;;;;;;;11.62;88.66;98890.25;5001144;28;20145;-58
2022/12/19 04:52:28;;;;;;;11.55;3.35;;;;;;;11.62;88.74;98895.44;5003690;28;20096;-59
2022/12/19 04:54:55;;;;;;;6.40;1.77;;;;;;;11.63;89.78;98897.13;5011992;28;20489;-62
2022/12/19 04:57:21;;;;;;;6.57;1.10;;;;;;;11.67;88.93;98903.94;5020477;28;20076;-59
2022/12/19 04:59:48;;;;;;;4.80;0.82;;;;;;;11.69;88.54;98903.00;5005855;28;20074;-59
2022/12/19 05:02:15;;;;;;;7.25;0.82;;;;;;;11.72;89.34;98903.81;5012716;28;20136;-59
2022/12/19 05:04:42;;;;;;;6.32;0.93;;;;;;;11.74;89.33;98904.63;5012854;28;20053;-59
2022/12/19 05:07:08;;;;;;;3.50;0.70;;;;;;;11.75;88.41;98907.16;5013409;28;20065;-58
2022/12/19 05:09:36;;;;;;;3.38;0.93;;;;;;;11.75;88.36;98894.19;5013255;28;20092;-61
2022/12/19 05:12:02;;;;;;;6.78;0.82;;;;;;;11.73;89.19;98908.09;5014817;28;20494;-61
2022/12/19 05:14:29;;;;;;;4.03;0.88;;;;;;;11.80;87.85;98912.25;5005984;28;20049;-60
2022/12/19 05:16:56;;;;;;;3.60;0.90;;;;;;;11.75;88.12;98899.41;5010034;28;20050;-57
2022/12/19 05:19:27;;;;;;;4.00;0.82;;;;;;;11.76;88.36;98908.88;5008301;28;20041;-60
2022/12/19 05:21:54;;;;;;;4.20;0.90;;;;;;;11.81;89.05;98912.22;5015351;28;20073;-60
2022/12/19 05:24:20;;;;;;;2.75;1.00;;;;;;;11.78;87.95;98901.91;5013697;28;20107;-59
2022/12/19 05:26:48;;;;;;;2.67;0.70;;;;;;;11.82;87.67;98908.72;5014587;28;20054;-59
2022/12/19 05:29:16;;;;;;;1.05;0.50;;;;;;;11.76;87.91;98908.88;5011015;28;20144;-59
2022/12/19 05:31:42;;;;;;;1.73;0.57;;;;;;;11.81;88.30;98898.38;5013417;28;20473;-62
2022/12/19 05:34:09;;;;;;;5.75;0.55;;;;;;;11.81;87.68;98901.84;5009201;28;20045;-59
2022/12/19 05:36:35;;;;;;;0.90;0.65;;;;;;;11.76;88.82;98898.50;4998260;28;20049;-62
2022/12/19 05:39:02;;;;;;;2.10;0.50;;;;;;;11.78;87.68;98898.44;5003088;28;20045;-62
2022/12/19 05:41:29;;;;;;;1.27;0.68;;;;;;;11.79;87.63;98888.03;4996281;28;20152;-59
2022/12/19 05:43:55;;;;;;;1.00;0.32;;;;;;;11.81;88.17;98886.28;4999051;28;20054;-60
2022/12/19 05:46:23;;;;;;;2.17;0.50;;;;;;;11.82;88.62;98887.09;4995525;28;20042;-59
2022/12/19 05:48:50;;;;;;;2.45;0.77;;;;;;;11.83;88.08;98905.22;4997896;28;20051;-60
2022/12/19 05:51:17;;;;;;;2.08;0.63;;;;;;;11.86;87.26;98901.72;4996676;28;20148;-58
2022/12/19 05:53:44;;;;;;;2.60;0.30;;;;;;;11.80;87.93;98884.56;5002109;28;20426;-59
2022/12/19 05:56:14;;;;;;;1.20;0.30;;;;;;;11.87;87.77;98890.44;4991067;28;20091;-55
2022/12/19 05:58:42;;;;;;;2.15;0.40;;;;;;;11.87;86.77;98906.00;4998130;28;20501;-61
2022/12/19 06:01:12;;;;;;;2.17;0.85;;;;;;;11.87;87.51;98899.97;4993012;28;21548;-62
2022/12/19 06:03:39;;;;;;;1.60;0.50;;;;;;;11.90;87.88;98894.69;4997986;28;20082;-60
2022/12/19 06:06:10;;;;;;;1.73;0.73;;;;;;;11.88;88.24;98897.31;4997348;28;20042;-58
2022/12/19 06:08:37;;;;;;;0.98;0.20;;;;;;;11.90;87.29;98899.88;4996803;28;20053;-62
2022/12/19 06:11:06;;;;;;;2.10;0.50;;;;;;;11.90;86.96;98902.47;4993426;28;20077;-60
2022/12/19 06:13:33;;;;;;;0.65;0.65;;;;;;;11.85;86.74;98893.97;4996776;28;20580;-58
2022/12/19 06:16:02;;;;;;;1.52;0.82;;;;;;;11.89;87.31;98900.78;4995378;28;20480;-59
2022/12/19 06:18:30;;;;;;;0.85;0.57;;;;;;;11.92;87.08;98900.72;5000187;28;20054;-59
2022/12/19 06:21:09;;;;;;;1.20;0.88;;;;;;;11.84;87.44;98903.50;4995057;28;20097;-59
2022/12/19 06:23:36;;;;;;;0.60;0.43;;;;;;;11.87;87.61;98894.78;5002217;28;20120;-63
2022/12/19 06:26:05;;;;;;;1.88;0.50;;;;;;;11.91;86.13;98905.03;5001949;28;20490;-58
2022/12/19 06:28:32;;;;;;;2.25;0.55;;;;;;;11.89;87.27;98908.56;5001736;28;20414;-60
2022/12/19 06:31:02;;;;;;;1.67;0.30;;;;;;;11.87;86.50;98892.19;5001500;28;20069;-62
2022/12/19 06:33:30;;;;;;;0.60;0.30;;;;;;;11.89;86.53;98893.00;4996806;28;20045;-61
2022/12/19 06:36:00;;;;;;;1.85;0.43;;;;;;;11.89;86.85;98887.81;4997466;28;20076;-59
2022/12/19 06:38:27;;;;;;;0.80;0.60;;;;;;;11.88;86.53;98884.34;4993675;28;20053;-57
2022/12/19 06:43:41;;;;;;;1.30;0.40;;;;;;;11.90;87.48;98873.94;4995115;28;20054;-61
2022/12/19 06:46:08;;;;;;;2.97;0.70;;;;;;;11.92;87.72;98891.16;5001748;28;20041;-62
2022/12/19 06:48:35;;;;;;;1.55;0.32;;;;;;;11.90;86.67;98900.75;4994141;28;20058;-60
2022/12/19 06:51:02;;;;;;;1.08;0.50;;;;;;;11.95;87.16;98882.44;4995550;28;20124;-56
2022/12/19 06:53:29;;;;;;;0.88;0.70;;;;;;;11.93;86.62;98897.22;4995572;28;20100;-60
2022/12/19 06:55:57;;;;;;;1.23;0.32;;;;;;;11.96;87.21;98894.53;4996056;28;20058;-61
2022/12/19 06:58:24;;;;;;;3.22;0.75;;;;;;;11.93;87.04;98890.25;4997340;28;20085;-62
2022/12/19 07:00:51;;;;;;;2.53;1.02;;;;;;;11.92;87.84;98878.19;4993082;28;20107;-59
2022/12/19 07:03:23;;;;;;;2.30;0.70;;;;;;;11.89;87.61;98873.06;4991517;28;20042;-59
2022/12/19 07:05:49;;;;;;;0.60;0.57;;;;;;;11.89;87.67;98893.00;4998447;28;20136;-57
2022/12/19 07:08:16;;;;;;;1.92;0.45;;;;;;;11.92;86.63;98887.75;4995948;28;20096;-60
2022/12/19 07:10:42;;;;;;;3.72;0.77;;;;;;;11.96;87.40;98891.94;4996737;28;20137;-59
2022/12/19 07:13:09;;;;;;;0.80;0.45;;;;;;;11.94;86.72;98878.16;4997289;28;20112;-63
2022/12/19 07:15:37;;;;;;;3.10;0.60;;;;;;;11.97;86.49;98885.84;4991658;28;20050;-59
2022/12/19 07:18:06;;;;;;;0.70;0.43;;;;;;;11.98;87.17;98892.75;4991759;28;20042;-58
2022/12/19 07:20:35;;;;;;;2.53;0.88;;;;;;;11.95;86.93;98878.13;4990201;28;21109;-59
2022/12/19 07:23:08;;;;;;;1.65;0.52;;;;;;;12.01;87.08;98891.81;4995827;28;20052;-59
2022/12/19 07:25:36;;;;;;;0.40;0.20;;;;;;;12.02;86.99;98894.34;4993120;28;20470;-57
2022/12/19 07:28:03;;;;;;;1.27;0.40;;;;;;;11.92;86.99;98888.56;4994049;28;20682;-60
2022/12/19 07:30:29;;;;;;;1.50;0.68;;;;;;;11.95;87.42;98874.66;4993818;28;20117;-59
2022/12/19 07:32:56;;;;;;;1.10;0.60;;;;;;;11.96;87.62;98876.38;4992819;28;20042;-59
2022/12/19 07:35:23;;;;;;;1.80;0.63;;;;;;;11.94;87.33;98880.75;4991414;28;20081;-61
2022/12/19 07:37:50;;;;;;;1.00;0.40;;;;;;;11.97;87.68;98875.47;4994228;28;20085;-60
2022/12/19 07:40:17;;;;;;;1.73;0.57;;;;;;;11.95;87.54;98872.94;4995338;28;20092;-58
2022/12/19 07:42:44;;;;;;;2.92;0.43;;;;;;;11.95;87.42;98877.25;5002225;28;20076;-61
2022/12/19 07:45:11;;;;;;;2.45;0.90;;;;;;;11.98;86.42;98871.97;5000063;28;20479;-62
2022/12/19 07:47:38;;;;;;;1.17;0.88;;;;;;;11.99;87.66;98868.50;5002076;28;20042;-63
2022/12/19 07:50:04;;;;;;;2.28;0.70;;;;;;;11.98;87.44;98866.78;4995659;28;20058;-59
2022/12/19 07:52:31;;;;;;;2.05;0.52;;;;;;;12.03;87.36;98864.91;4993773;28;20528;-60
2022/12/19 07:54:58;;;;;;;2.15;0.52;;;;;;;12.02;86.33;98878.78;4994035;28;20088;-58
2022/12/19 07:57:24;;;;;;;0.55;0.38;;;;;;;12.03;86.76;98871.88;4995851;28;20101;-61
2022/12/19 07:59:51;;;;;;;1.95;0.70;;;;;;;12.02;86.36;98878.78;5001493;28;20080;-57
2022/12/19 08:02:18;;;;;;;1.95;0.65;;;;;;;12.04;87.19;98877.00;4996726;28;20056;-59
2022/12/19 08:04:45;;;;;;;1.20;0.60;;;;;;;11.98;87.79;98877.19;5002071;28;20132;-60
2022/12/19 08:07:12;;;;;;;0.70;0.43;;;;;;;12.02;87.57;98883.16;4999443;28;20042;-61
2022/12/19 08:09:38;;;;;;;0.65;0.50;;;;;;;12.02;86.30;98889.16;4995961;28;20058;-61
2022/12/19 08:12:05;;;;;;;1.58;1.10;;;;;;;12.06;87.28;98903.78;5001892;28;20155;-60
2022/12/19 08:14:32;;;;;;;3.63;0.88;;;;;;;12.07;87.44;98897.72;4990479;28;20411;-59
2022/12/19 08:16:58;;;;;;;0.65;0.52;;;;;;;12.05;86.79;98889.09;5000631;28;20073;-58
2022/12/19 08:19:45;;;;;;;1.13;0.63;;;;;;;12.10;87.42;98903.72;4996965;28;20050;-62
2022/12/19 08:22:11;;;;;;;0.93;0.60;;;;;;;12.08;86.41;98883.84;4996932;28;20651;-61
2022/12/19 08:24:38;;;;;;;1.02;0.55;;;;;;;12.07;87.27;98891.69;4999670;28;20133;-59
2022/12/19 08:27:05;;;;;;;0.65;0.65;;;;;;;12.10;86.85;98895.94;4995418;28;20515;-56
2022/12/19 08:29:31;;;;;;;1.77;0.77;;;;;;;12.12;86.98;98900.19;4996272;28;20053;-61
2022/12/19 08:31:58;;;;;;;0.68;0.43;;;;;;;12.17;87.11;98897.47;4992731;28;20042;-59
2022/12/19 08:34:24;;;;;;;0.75;0.50;;;;;;;12.21;86.24;98891.28;4995049;28;20081;-57
2022/12/19 08:36:51;;;;;;;0.80;0.55;;;;;;;12.23;86.03;98894.72;4997066;28;20057;-61
2022/12/19 08:39:18;;;;;;;0.60;0.60;;;;;;;12.18;86.36;98883.59;4994528;28;20136;-58
2022/12/19 08:41:44;;;;;;;0.40;0.30;;;;;;;12.21;86.53;98904.28;4996162;28;20096;-59
2022/12/19 08:44:12;;;;;;;0.63;0.50;;;;;;;12.17;86.73;98898.31;4994174;28;20689;-58
2022/12/19 08:46:39;;;;;;;1.30;0.40;;;;;;;12.20;85.50;98897.38;4994162;28;20052;-60
2022/12/19 08:49:11;;;;;;;2.55;0.45;;;;;;;12.19;86.66;98890.47;4991975;28;20093;-61
2022/12/19 08:51:38;;;;;;;2.47;0.77;;;;;;;12.17;85.68;98884.50;4993590;28;20069;-59
2022/12/19 08:54:05;;;;;;;0.63;0.40;;;;;;;12.20;85.67;98881.81;4992222;28;20549;-62
2022/12/19 08:56:34;;;;;;;2.58;0.30;;;;;;;12.19;85.54;98900.84;4995643;28;20062;-58
2022/12/19 08:59:01;;;;;;;0.85;0.52;;;;;;;12.21;85.44;98884.38;4995751;28;20051;-57
2022/12/19 09:01:28;;;;;;;1.65;0.20;;;;;;;12.24;85.69;98893.81;4993470;28;20498;-60
2022/12/19 09:03:58;;;;;;;0.82;0.68;;;;;;;12.27;86.17;98870.38;4998442;28;20053;-62
2022/12/19 09:06:45;;;;;;;0.30;0.30;;;;;;;12.27;85.91;98877.28;4995807;28;20066;-63
2022/12/19 09:09:11;;;;;;;0.80;0.50;;;;;;;12.22;86.44;98869.63;4993030;28;20121;-59
2022/12/19 09:11:38;;;;;;;1.40;0.40;;;;;;;12.18;86.55;98878.38;4997909;28;20073;-59
2022/12/19 09:14:13;;;;;;;0.60;0.50;;;;;;;12.27;85.20;98883.34;4994358;28;20077;-59
2022/12/19 09:16:46;;;;;;;1.58;0.38;;;;;;;12.23;85.68;98876.53;4996318;28;20457;-56
2022/12/19 09:19:15;;;;;;;2.38;0.25;;;;;;;12.22;85.87;98890.38;4993825;28;20370;-59
2022/12/19 09:21:42;;;;;;;1.75;0.47;;;;;;;12.23;85.31;98871.34;4998404;28;20126;-59
2022/12/19 09:24:09;;;;;;;1.63;0.68;;;;;;;12.23;84.92;98881.72;4994351;28;20132;-58
2022/12/19 09:26:38;;;;;;;2.05;0.90;;;;;;;12.26;85.99;98881.63;5001585;28;20736;-60
2022/12/19 09:29:06;;;;;;;1.83;0.43;;;;;;;12.27;85.04;98878.16;4996803;28;20053;-57
2022/12/19 09:31:48;;;;;;;0.80;0.47;;;;;;;12.30;84.72;98879.81;4998914;28;20050;-59
2022/12/19 09:34:24;;;;;;;1.38;0.63;;;;;;;12.29;85.41;98880.72;4996599;28;20077;-61
2022/12/19 09:37:05;;;;;;;0.65;0.55;;;;;;;12.24;84.95;98888.63;4999846;28;20073;-58
2022/12/19 09:39:33;;;;;;;1.52;0.80;;;;;;;12.31;84.89;98877.16;4997384;28;20050;-59
2022/12/19 09:42:25;;;;;;;0.75;0.47;;;;;;;12.32;84.67;98884.06;4996593;28;20076;-61
2022/12/19 09:45:31;;;;;;;2.17;0.95;;;;;;;12.29;85.01;98884.13;4993322;28;20092;-59
2022/12/19 09:48:00;;;;;;;1.80;0.57;;;;;;;12.32;84.60;98885.78;5004436;28;20145;-58
2022/12/19 09:53:15;;;;;;;1.15;0.82;;;;;;;12.32;85.56;98886.66;5099831;27;20405;-57
2022/12/19 09:55:43;;;;;;;1.92;0.43;;;;;;;12.29;85.92;98880.72;5075013;28;20051;-62
2022/12/19 10:00:56;;;;;;;4.47;0.80;;;;;;;12.33;84.54;98898.72;5079060;27;20410;-61
2022/12/19 10:03:46;;;;;;;0.90;0.47;;;;;;;12.33;84.63;98896.13;5040291;28;20136;-59
2022/12/19 10:06:18;;;;;;;1.33;0.50;;;;;;;12.34;85.00;98886.59;5055643;28;20053;-58
2022/12/19 10:09:18;;;;;;;2.88;0.50;;;;;;;12.33;85.22;98877.13;5056472;28;20052;-60
2022/12/19 10:20:26;;;;;;;1.52;0.68;;;;;;;12.40;84.53;98851.81;5026376;28;20430;-60
2022/12/19 10:31:22;;;;;;;2.28;0.65;;;;;;;12.50;84.01;98848.03;5113678;27;20407;-62
2022/12/19 10:34:18;;;;;;;1.42;0.60;;;;;;;12.47;84.31;98823.00;5093931;28;20052;-62
2022/12/19 10:36:51;;;;;;;2.25;0.63;;;;;;;12.55;83.46;98825.41;5089535;28;20047;-59
2022/12/19 10:42:25;;;;;;;1.42;0.98;;;;;;;12.89;82.56;98833.88;5020592;28;20453;-63
2022/12/19 10:44:56;;;;;;;1.65;0.60;;;;;;;12.73;83.07;98846.47;5006521;28;20493;-58
2022/12/19 10:47:23;;;;;;;2.10;1.90;;;;;;;12.70;83.41;98831.03;5018574;28;20563;-59
2022/12/19 10:49:49;;;;;;;2.45;1.58;;;;;;;12.72;83.19;98831.81;5020697;28;20053;-60
2022/12/19 10:52:44;;;;;;;0.73;0.65;;;;;;;12.66;83.76;98806.03;5013063;28;20597;-60
2022/12/19 11:03:37;;;;;;;1.90;1.13;;;;;;;12.65;83.04;98825.09;5120550;27;20410;-58
2022/12/19 11:06:05;;;;;;;3.30;0.60;;;;;;;12.58;82.41;98846.09;5095989;28;20119;-58
2022/12/19 11:08:35;;;;;;;3.20;0.77;;;;;;;12.62;83.10;98827.78;5098072;28;20066;-55
2022/12/19 11:13:43;;;;;;;1.90;1.80;;;;;;;12.68;82.14;98845.78;5032395;28;20403;-61
2022/12/19 11:16:35;;;;;;;1.63;1.52;;;;;;;12.69;83.43;98824.09;5010623;28;20050;-59
2022/12/19 11:22:18;;;;;;;1.73;0.70;;;;;;;12.88;81.27;98836.53;5074833;27;20412;-61
2022/12/19 11:25:05;;;;;;;0.65;0.45;;;;;;;12.71;82.68;98835.31;5021803;28;20475;-61
2022/12/19 11:27:51;;;;;;;2.60;0.85;;;;;;;12.65;83.53;98832.88;5039734;28;20044;-59
2022/12/19 11:30:39;;;;;;;0.98;0.75;;;;;;;12.65;83.29;98830.28;5020737;28;20125;-59
2022/12/19 11:33:26;;;;;;;0.90;0.70;;;;;;;12.60;83.42;98813.09;5015937;28;20045;-59
2022/12/19 11:35:57;;;;;;;1.63;0.77;;;;;;;12.60;82.49;98805.31;5035401;28;20052;-62
2022/12/19 11:41:13;;;;;;;1.55;0.57;;;;;;;12.64;82.78;98807.81;5105005;27;20401;-60
2022/12/19 11:52:09;;;;;;;1.48;0.52;;;;;;;12.65;82.54;98799.13;5060592;28;20394;-61
2022/12/19 11:55:02;;;;;;;1.75;0.60;;;;;;;12.59;82.80;98801.03;5021409;28;20054;-57
2022/12/19 11:57:29;;;;;;;3.05;0.52;;;;;;;12.65;83.39;98812.09;5043177;28;20071;-63
2022/12/19 11:59:56;;;;;;;1.10;0.55;;;;;;;12.65;83.21;98794.78;5032962;28;20568;-58
2022/12/19 12:08:19;;;;;;;2.47;0.30;;;;;;;12.68;82.22;98770.44;5046284;27;20418;-56
2022/12/19 12:11:29;;;;;;;2.20;0.75;;;;;;;12.68;81.44;98757.47;5018986;28;20573;-57
2022/12/19 12:14:19;;;;;;;0.50;0.43;;;;;;;12.74;82.33;98752.09;5017395;28;20052;-58
2022/12/19 12:17:33;;;;;;;1.65;0.63;;;;;;;12.65;81.95;98747.16;5016226;28;20076;-62
2022/12/19 12:20:50;;;;;;;1.55;0.43;;;;;;;12.65;81.38;98736.78;5014704;28;20046;-59
2022/12/19 12:24:16;;;;;;;5.00;1.80;;;;;;;12.71;81.51;98731.41;5011942;28;20069;-63
2022/12/19 12:36:01;;;;;;;2.20;0.77;;;;;;;13.02;81.38;98745.97;5027275;27;20910;-56
2022/12/19 12:42:03;;;;;;;2.20;0.55;;;;;;;12.87;82.39;98736.09;5017809;28;20796;-61
2022/12/19 12:47:27;;;;;;;4.10;0.80;;;;;;;12.84;82.36;98731.84;5035923;28;20410;-59
2022/12/19 12:49:55;;;;;;;;;;;;;;;12.73;82.90;98724.38;5014364;28;20129;-63
2022/12/19 12:52:44;;;;;;;2.70;1.10;;;;;;;12.77;81.94;98730.34;5013317;28;19929;-63
2022/12/19 12:57:56;;;;;;;1.65;0.63;;;;;;;12.83;81.22;98741.38;5099283;27;20812;-58
2022/12/19 13:03:18;;;;;;;3.97;0.75;;;;;;;12.71;82.39;98741.78;5021456;28;20944;-60
2022/12/19 13:08:43;;;;;;;5.07;1.27;;;;;;;13.00;81.17;98746.91;5012235;28;20540;-58
2022/12/19 13:13:56;;;;;;;3.35;0.80;;;;;;;12.77;81.15;98751.97;5083487;27;20391;-61
2022/12/19 13:30:13;;;;;;;2.00;0.85;;;;;;;12.90;82.20;98736.00;5005036;27;20916;-62
2022/12/19 13:41:00;;;;;;;2.15;0.75;;;;;;;12.89;81.43;98744.66;5044540;28;20390;-64
2022/12/19 13:43:48;;;;;;;1.38;0.38;;;;;;;12.87;82.10;98736.09;5018682;28;20045;-62
2022/12/19 13:49:02;;;;;;;1.67;0.57;;;;;;;12.84;81.68;98753.47;5053105;28;20397;-59
2022/12/19 13:51:39;;;;;;;1.40;0.98;;;;;;;12.82;82.40;98718.91;5001028;28;20145;-60
2022/12/19 13:54:18;;;;;;;3.13;1.15;;;;;;;12.89;81.82;98721.28;4994883;28;20572;-60
2022/12/19 13:56:45;;;;;;;2.75;0.75;;;;;;;12.93;82.17;98715.06;4996359;28;20054;-63
2022/12/19 13:59:12;;;;;;;1.48;0.85;;;;;;;12.91;82.11;98722.94;4998829;28;20093;-64
2022/12/19 14:01:39;;;;;;;1.90;0.40;;;;;;;12.89;81.02;98724.72;4996687;28;20038;-64
2022/12/19 14:04:24;;;;;;;2.60;0.88;;;;;;;12.96;81.93;98721.03;4996616;28;20054;-62
2022/12/19 14:06:57;;;;;;;2.45;0.52;;;;;;;12.97;80.98;98717.53;4998447;28;20697;-62
2022/12/19 14:12:04;;;;;;;2.35;0.80;;;;;;;12.99;81.42;98714.88;5062473;27;20408;-64
2022/12/19 14:17:39;;;;;;;1.52;0.50;;;;;;;13.01;81.06;98726.09;5053527;28;20071;-60
2022/12/19 14:20:18;;;;;;;4.20;0.98;;;;;;;13.00;80.64;98716.56;5056927;28;20546;-60
2022/12/19 14:23:05;;;;;;;1.67;0.70;;;;;;;13.00;81.21;98724.34;5052506;28;20535;-62
2022/12/19 14:25:52;;;;;;;1.25;0.73;;;;;;;12.97;81.15;98712.31;5052813;28;20562;-63
2022/12/19 14:28:47;;;;;;;1.92;0.40;;;;;;;12.98;80.86;98719.22;5066155;28;20048;-59
2022/12/19 14:31:23;;;;;;;3.40;0.90;;;;;;;13.01;81.37;98714.81;5075835;28;20416;-63
2022/12/19 14:33:52;;;;;;;1.98;0.70;;;;;;;13.02;81.29;98709.56;5050772;28;21229;-57
2022/12/19 14:36:48;;;;;;;1.92;0.50;;;;;;;13.03;81.00;98711.25;5052175;28;20049;-62
2022/12/19 14:39:17;;;;;;;2.67;0.40;;;;;;;13.00;80.83;98706.16;5051550;28;20533;-62
2022/12/19 14:51:13;;;;;;;1.80;1.52;;;;;;;12.95;81.36;98728.88;5027600;28;20932;-61